Time,TemperatureF,DewpointF,PressureIn,WindDirection,WindDirectionDegrees,WindSpeedMPH,WindSpeedGustMPH,Humidity,HourlyPrecipIn,Conditions,Clouds,dailyrainin,SoftwareType,DateUTC
2013-08-11 00:14:00,66.0,63.0,30.01,East,85,0.0,4.0,91,0.00,,,0.00,weatherlink.com 1.10,2013-08-11 07:14:00,
2013-08-11 00:29:00,65.6,64.0,30.02,ENE,58,0.0,0.0,93,0.01,,,0.01,weatherlink.com 1.10,2013-08-11 07:29:00,
2013-08-11 00:44:00,65.3,63.0,30.01,ENE,57,0.0,3.0,92,0.01,,,0.01,weatherlink.com 1.10,2013-08-11 07:44:00,
2013-08-11 00:59:00,65.0,63.0,30.01,ENE,58,0.0,3.0,94,0.03,,,0.03,weatherlink.com 1.10,2013-08-11 07:59:00,
2013-08-11 01:14:00,64.6,63.0,30.00,ENE,58,0.0,3.0,95,0.05,,,0.05,weatherlink.com 1.10,2013-08-11 08:14:00,
2013-08-11 01:29:00,64.5,63.0,30.00,ENE,58,0.0,2.0,96,0.05,,,0.06,weatherlink.com 1.10,2013-08-11 08:29:00,
2013-08-11 02:15:00,64.6,63.0,29.99,ENE,76,1.0,5.0,95,0.07,,,0.12,weatherlink.com 1.10,2013-08-11 09:15:00,
2013-08-11 02:30:00,64.4,63.0,30.00,ENE,68,0.0,1.0,96,0.06,,,0.12,weatherlink.com 1.10,2013-08-11 09:30:00,
2013-08-11 02:45:00,64.3,63.0,30.01,NW,320,0.0,3.0,96,0.06,,,0.13,weatherlink.com 1.10,2013-08-11 09:45:00,
2013-08-11 03:00:00,64.3,63.0,30.01,NW,320,0.0,1.0,96,0.03,,,0.13,weatherlink.com 1.10,2013-08-11 10:00:00,
2013-08-11 03:15:00,64.4,64.0,30.00,NW,320,0.0,0.0,97,0.02,,,0.14,weatherlink.com 1.10,2013-08-11 10:15:00,
2013-08-11 03:45:00,63.9,63.0,30.02,NW,320,0.0,0.0,96,0.01,,,0.14,weatherlink.com 1.10,2013-08-11 10:45:00,
2013-08-11 04:15:00,62.0,61.0,30.02,NNE,15,0.0,2.0,96,0.00,,,0.14,weatherlink.com 1.10,2013-08-11 11:15:00,
2013-08-11 04:45:00,61.4,60.0,30.02,NNE,15,0.0,1.0,96,0.00,,,0.14,weatherlink.com 1.10,2013-08-11 11:45:00,
2013-08-11 05:15:00,60.9,60.0,30.04,NNE,15,0.0,0.0,96,0.00,,,0.14,weatherlink.com 1.10,2013-08-11 12:15:00,
2013-08-11 05:30:00,60.7,60.0,30.04,NNE,15,0.0,1.0,97,0.00,,,0.14,weatherlink.com 1.10,2013-08-11 12:30:00,
2013-08-11 05:45:00,60.5,59.0,30.04,NNE,15,0.0,0.0,96,0.00,,,0.14,weatherlink.com 1.10,2013-08-11 12:45:00,
2013-08-11 06:00:00,60.2,59.0,30.04,NNE,15,0.0,0.0,96,0.00,,,0.14,weatherlink.com 1.10,2013-08-11 13:00:00,
2013-08-11 06:30:00,59.7,59.0,30.05,NNE,15,0.0,1.0,96,0.00,,,0.14,weatherlink.com 1.10,2013-08-11 13:30:00,
2013-08-11 06:45:00,59.6,59.0,30.05,NNE,15,0.0,1.0,97,0.00,,,0.14,weatherlink.com 1.10,2013-08-11 13:45:00,
2013-08-11 07:00:00,59.6,59.0,30.05,NNE,15,0.0,0.0,97,0.00,,,0.14,weatherlink.com 1.10,2013-08-11 14:00:00,
2013-08-11 07:15:00,59.6,59.0,30.04,NNE,15,0.0,0.0,97,0.00,,,0.14,weatherlink.com 1.10,2013-08-11 14:15:00,
2013-08-11 07:30:00,59.7,59.0,30.04,NNE,15,0.0,0.0,97,0.00,,,0.14,weatherlink.com 1.10,2013-08-11 14:30:00,
2013-08-11 07:45:00,59.5,58.0,30.05,NNE,15,0.0,1.0,96,0.00,,,0.14,weatherlink.com 1.10,2013-08-11 14:45:00,
2013-08-11 08:15:00,59.3,59.0,30.05,NNE,15,0.0,1.0,97,0.00,,,0.14,weatherlink.com 1.10,2013-08-11 15:15:00,
2013-08-11 08:30:00,59.2,58.0,30.05,NNE,16,0.0,1.0,96,0.00,,,0.14,weatherlink.com 1.10,2013-08-11 15:30:00,
2013-08-11 08:45:00,59.4,59.0,30.05,NNE,16,0.0,1.0,97,0.00,,,0.14,weatherlink.com 1.10,2013-08-11 15:45:00,
2013-08-11 09:00:00,59.8,59.0,30.05,NNE,16,0.0,0.0,97,0.00,,,0.14,weatherlink.com 1.10,2013-08-11 16:00:00,
2013-08-11 09:15:00,59.9,59.0,30.05,NNE,16,0.0,0.0,96,0.00,,,0.14,weatherlink.com 1.10,2013-08-11 16:15:00,
2013-08-11 09:30:00,59.8,59.0,30.05,NNE,16,0.0,1.0,96,0.00,,,0.14,weatherlink.com 1.10,2013-08-11 16:30:00,
2013-08-11 09:45:00,59.9,59.0,30.06,NNE,17,0.0,1.0,96,0.00,,,0.14,weatherlink.com 1.10,2013-08-11 16:45:00,
2013-08-11 10:00:00,60.1,59.0,30.06,NNE,16,0.0,0.0,97,0.00,,,0.14,weatherlink.com 1.10,2013-08-11 17:00:00,
2013-08-11 10:15:00,60.7,60.0,30.06,East,101,0.0,2.0,96,0.00,,,0.14,weatherlink.com 1.10,2013-08-11 17:15:00,
2013-08-11 10:30:00,61.3,60.0,30.06,ESE,109,1.0,5.0,94,0.00,,,0.14,weatherlink.com 1.10,2013-08-11 17:30:00,
2013-08-11 10:45:00,61.8,60.0,30.06,ESE,107,0.0,2.0,95,0.00,,,0.14,weatherlink.com 1.10,2013-08-11 17:45:00,
2013-08-11 11:00:00,62.5,61.0,30.05,ESE,108,0.0,2.0,93,0.00,,,0.14,weatherlink.com 1.10,2013-08-11 18:00:00,
2013-08-11 11:15:00,62.9,61.0,30.05,ESE,108,0.0,1.0,92,0.00,,,0.14,weatherlink.com 1.10,2013-08-11 18:15:00,
2013-08-11 11:30:00,63.3,61.0,30.05,ESE,108,0.0,2.0,93,0.00,,,0.14,weatherlink.com 1.10,2013-08-11 18:30:00,
2013-08-11 11:45:00,63.1,61.0,30.05,ESE,108,0.0,2.0,92,0.00,,,0.14,weatherlink.com 1.10,2013-08-11 18:45:00,
2013-08-11 12:00:00,63.5,61.0,30.05,ESE,123,0.0,2.0,90,0.00,,,0.14,weatherlink.com 1.10,2013-08-11 19:00:00,
2013-08-11 12:15:00,63.6,61.0,30.05,SE,130,0.0,6.0,90,0.00,,,0.14,weatherlink.com 1.10,2013-08-11 19:15:00,
2013-08-11 12:30:00,64.5,62.0,30.05,SE,138,0.0,1.0,91,0.00,,,0.14,weatherlink.com 1.10,2013-08-11 19:30:00,
2013-08-11 12:45:00,64.8,62.0,30.05,WNW,285,0.0,5.0,89,0.00,,,0.14,weatherlink.com 1.10,2013-08-11 19:45:00,
2013-08-11 13:00:00,65.3,62.0,30.04,South,170,0.0,1.0,88,0.00,,,0.14,weatherlink.com 1.10,2013-08-11 20:00:00,
2013-08-11 13:15:00,65.5,62.0,30.04,ESE,120,0.0,2.0,87,0.00,,,0.14,weatherlink.com 1.10,2013-08-11 20:15:00,
2013-08-11 13:30:00,65.8,62.0,30.04,SSW,213,0.0,3.0,87,0.00,,,0.14,weatherlink.com 1.10,2013-08-11 20:30:00,
2013-08-11 13:45:00,66.1,62.0,30.03,ESE,121,0.0,2.0,86,0.00,,,0.14,weatherlink.com 1.10,2013-08-11 20:45:00,
2013-08-11 14:00:00,66.5,61.0,30.03,East,92,0.0,6.0,83,0.00,,,0.14,weatherlink.com 1.10,2013-08-11 21:00:00,
2013-08-11 14:15:00,66.7,62.0,30.03,East,92,0.0,2.0,85,0.00,,,0.14,weatherlink.com 1.10,2013-08-11 21:15:00,
2013-08-11 14:30:00,66.4,63.0,30.03,East,92,0.0,3.0,87,0.00,,,0.14,weatherlink.com 1.10,2013-08-11 21:30:00,
2013-08-11 14:45:00,66.0,62.0,30.03,East,92,0.0,1.0,87,0.00,,,0.14,weatherlink.com 1.10,2013-08-11 21:45:00,
2013-08-11 15:01:00,65.4,62.0,30.03,East,93,0.0,1.0,88,0.00,,,0.14,weatherlink.com 1.10,2013-08-11 22:01:00,
2013-08-11 15:15:00,65.0,62.0,30.03,East,93,0.0,0.0,91,0.00,,,0.14,weatherlink.com 1.10,2013-08-11 22:15:00,
2013-08-11 15:30:00,64.5,62.0,30.03,East,93,0.0,0.0,92,0.00,,,0.14,weatherlink.com 1.10,2013-08-11 22:30:00,
2013-08-11 15:45:00,64.3,62.0,30.02,East,93,0.0,0.0,93,0.00,,,0.14,weatherlink.com 1.10,2013-08-11 22:45:00,
2013-08-11 16:01:00,63.8,62.0,30.01,East,99,1.0,2.0,94,0.01,,,0.15,weatherlink.com 1.10,2013-08-11 23:01:00,
2013-08-11 16:45:00,63.1,62.0,30.01,SE,145,0.0,1.0,96,0.02,,,0.16,weatherlink.com 1.10,2013-08-11 23:45:00,
2013-08-11 17:16:00,62.9,62.0,30.03,South,179,0.0,3.0,95,0.02,,,0.17,weatherlink.com 1.10,2013-08-12 00:16:00,
2013-08-11 17:31:00,62.9,62.0,30.03,South,179,0.0,1.0,96,0.03,,,0.18,weatherlink.com 1.10,2013-08-12 00:31:00,
2013-08-11 17:46:00,62.9,62.0,30.01,South,179,0.0,1.0,96,0.05,,,0.21,weatherlink.com 1.10,2013-08-12 00:46:00,
2013-08-11 18:01:00,63.3,63.0,30.01,East,82,0.0,3.0,97,0.06,,,0.23,weatherlink.com 1.10,2013-08-12 01:01:00,
2013-08-11 18:16:00,64.0,63.0,30.01,East,86,1.0,5.0,95,0.06,,,0.23,weatherlink.com 1.10,2013-08-12 01:16:00,
2013-08-11 18:31:00,64.4,62.0,30.00,East,92,0.0,6.0,93,0.05,,,0.23,weatherlink.com 1.10,2013-08-12 01:31:00,
2013-08-11 18:46:00,64.5,63.0,30.00,East,92,0.0,1.0,95,0.02,,,0.23,weatherlink.com 1.10,2013-08-12 01:46:00,
2013-08-11 19:01:00,64.3,63.0,30.01,East,92,0.0,0.0,95,0.00,,,0.23,weatherlink.com 1.10,2013-08-12 02:01:00,
2013-08-11 19:16:00,64.3,63.0,30.01,East,92,0.0,1.0,96,0.00,,,0.23,weatherlink.com 1.10,2013-08-12 02:16:00,
2013-08-11 19:31:00,64.2,63.0,30.01,East,92,0.0,1.0,96,0.00,,,0.23,weatherlink.com 1.10,2013-08-12 02:31:00,
2013-08-11 20:01:00,63.4,62.0,30.02,East,92,0.0,0.0,95,0.00,,,0.23,weatherlink.com 1.10,2013-08-12 03:01:00,
2013-08-11 20:16:00,62.9,62.0,30.02,East,92,0.0,0.0,95,0.00,,,0.23,weatherlink.com 1.10,2013-08-12 03:16:00,
2013-08-11 20:46:00,62.0,61.0,30.02,East,92,0.0,0.0,96,0.00,,,0.23,weatherlink.com 1.10,2013-08-12 03:46:00,
2013-08-11 21:01:00,61.9,61.0,30.02,East,92,0.0,0.0,97,0.00,,,0.23,weatherlink.com 1.10,2013-08-12 04:01:00,
2013-08-11 21:16:00,61.8,61.0,30.02,East,92,0.0,0.0,97,0.00,,,0.23,weatherlink.com 1.10,2013-08-12 04:16:00,
2013-08-11 21:31:00,61.7,61.0,30.02,East,92,0.0,0.0,97,0.00,,,0.23,weatherlink.com 1.10,2013-08-12 04:31:00,
2013-08-11 21:46:00,61.5,61.0,30.03,East,92,0.0,0.0,97,0.00,,,0.23,weatherlink.com 1.10,2013-08-12 04:46:00,
2013-08-11 22:01:00,61.4,61.0,30.03,East,92,0.0,0.0,97,0.00,,,0.23,weatherlink.com 1.10,2013-08-12 05:01:00,
2013-08-11 22:16:00,61.4,61.0,30.02,East,92,0.0,0.0,97,0.00,,,0.23,weatherlink.com 1.10,2013-08-12 05:16:00,
2013-08-11 22:31:00,61.4,61.0,30.03,East,92,0.0,0.0,97,0.00,,,0.23,weatherlink.com 1.10,2013-08-12 05:31:00,
2013-08-11 22:46:00,61.5,61.0,30.03,East,92,0.0,0.0,98,0.00,,,0.23,weatherlink.com 1.10,2013-08-12 05:46:00,
2013-08-11 23:01:00,61.7,61.0,30.04,East,92,0.0,0.0,98,0.00,,,0.23,weatherlink.com 1.10,2013-08-12 06:01:00,
2013-08-11 23:16:00,61.8,61.0,30.03,East,92,0.0,0.0,98,0.00,,,0.23,weatherlink.com 1.10,2013-08-12 06:16:00,
2013-08-11 23:31:00,61.7,61.0,30.03,East,92,0.0,0.0,98,0.00,,,0.23,weatherlink.com 1.10,2013-08-12 06:31:00,
2013-08-11 23:46:00,61.6,61.0,30.03,East,92,0.0,0.0,98,0.00,,,0.23,weatherlink.com 1.10,2013-08-12 06:46:00,